Time;durP1;ratioP1;P1;durP2;ratioP2;P2;SDS_P1;SDS_P2;PMS_P1;PMS_P2;Temp;Humidity;BMP_temperature;BMP_pressure;BME280_temperature;BME280_humidity;BME280_pressure;Samples;Min_cycle;Max_cycle;Signal;HPM_P1;HPM_P2
2024/02/13 00:01:39;;;;;;;29.10;13.30;;;;;;;;;;5015919;28;20613;-73
2024/02/13 00:04:05;;;;;;;27.70;13.03;;;;;;;;;;5039584;28;20571;-74
2024/02/13 00:06:32;;;;;;;29.20;13.57;;;;;;;;;;5042864;28;20276;-74
2024/02/13 00:08:57;;;;;;;34.20;13.90;;;;;;;;;;5027780;28;20182;-74
2024/02/13 00:11:24;;;;;;;35.90;12.47;;;;;;;;;;5033308;28;20182;-73
2024/02/13 00:13:50;;;;;;;35.07;15.53;;;;;;;;;;5031394;28;20269;-73
2024/02/13 00:16:20;;;;;;;40.20;16.33;;;;;;;;;;5025287;28;20276;-74
2024/02/13 00:18:52;;;;;;;42.87;15.83;;;;;;;;;;5010903;28;20225;-74
2024/02/13 00:21:18;;;;;;;33.13;15.00;;;;;;;;;;5027414;28;20194;-74
2024/02/13 00:23:43;;;;;;;35.30;15.97;;;;;;;;;;5023172;28;20457;-74
2024/02/13 00:26:10;;;;;;;37.63;15.90;;;;;;;;;;5024751;28;20210;-74
2024/02/13 00:28:39;;;;;;;30.70;16.23;;;;;;;;;;5019366;28;20186;-74
2024/02/13 00:31:04;;;;;;;34.57;17.87;;;;;;;;;;5036068;28;20555;-74
2024/02/13 00:33:31;;;;;;;34.37;16.47;;;;;;;;;;5030699;28;20186;-74
2024/02/13 00:35:56;;;;;;;40.87;17.33;;;;;;;;;;5008558;28;20197;-73
2024/02/13 00:38:22;;;;;;;35.50;17.40;;;;;;;;;;5036301;28;20193;-73
2024/02/13 00:40:48;;;;;;;41.40;17.33;;;;;;;;;;5047105;28;20185;-73
2024/02/13 00:43:19;;;;;;;37.50;17.63;;;;;;;;;;5034518;28;20270;-74
2024/02/13 00:45:48;;;;;;;43.73;17.67;;;;;;;;;;5037264;28;20213;-73
2024/02/13 00:48:13;;;;;;;43.87;17.67;;;;;;;;;;5035014;28;20199;-74
2024/02/13 00:50:38;;;;;;;38.70;18.03;;;;;;;;;;5028210;28;20570;-73
2024/02/13 00:53:05;;;;;;;41.73;18.70;;;;;;;;;;5023865;28;20243;-73
2024/02/13 00:55:31;;;;;;;42.67;20.13;;;;;;;;;;5024950;28;20202;-74
2024/02/13 00:57:57;;;;;;;47.57;22.20;;;;;;;;;;5030084;28;20185;-75
2024/02/13 01:00:24;;;;;;;42.10;20.20;;;;;;;;;;5023784;28;20194;-75
2024/02/13 01:02:50;;;;;;;42.80;19.33;;;;;;;;;;5001086;28;20252;-73
2024/02/13 01:05:15;;;;;;;44.07;20.07;;;;;;;;;;5040303;28;20603;-74
2024/02/13 01:07:42;;;;;;;42.30;21.47;;;;;;;;;;5035252;28;20645;-74
2024/02/13 01:10:08;;;;;;;43.37;20.77;;;;;;;;;;5036867;28;20189;-75
2024/02/13 01:12:34;;;;;;;50.73;21.03;;;;;;;;;;5035846;28;20886;-74
2024/02/13 01:14:59;;;;;;;43.13;21.83;;;;;;;;;;5030383;28;20190;-74
2024/02/13 01:17:28;;;;;;;44.23;21.37;;;;;;;;;;5007128;28;20229;-74
2024/02/13 01:19:54;;;;;;;44.13;20.23;;;;;;;;;;5030178;28;20282;-74
2024/02/13 01:22:19;;;;;;;45.70;20.87;;;;;;;;;;5021724;28;20234;-74
2024/02/13 01:24:45;;;;;;;46.33;21.00;;;;;;;;;;5029023;28;20550;-74
2024/02/13 01:27:10;;;;;;;45.50;20.90;;;;;;;;;;5019810;28;20182;-74
2024/02/13 01:29:36;;;;;;;44.37;20.27;;;;;;;;;;5035914;28;20265;-74
2024/02/13 01:32:05;;;;;;;40.30;20.53;;;;;;;;;;5019888;28;20233;-74
2024/02/13 01:34:30;;;;;;;48.20;21.97;;;;;;;;;;5025081;28;20197;-74
2024/02/13 01:36:59;;;;;;;47.10;22.13;;;;;;;;;;5032066;28;20186;-74
2024/02/13 01:39:25;;;;;;;44.03;20.77;;;;;;;;;;5029479;28;20190;-74
2024/02/13 01:41:51;;;;;;;45.53;21.13;;;;;;;;;;5022241;28;20203;-74
2024/02/13 01:44:16;;;;;;;43.90;19.90;;;;;;;;;;5042315;28;20186;-74
2024/02/13 01:46:42;;;;;;;39.00;19.73;;;;;;;;;;5035605;28;20265;-74
2024/02/13 01:49:09;;;;;;;40.30;19.80;;;;;;;;;;5025820;28;20198;-74
2024/02/13 01:51:36;;;;;;;42.73;19.80;;;;;;;;;;5018473;28;20194;-73
2024/02/13 01:54:05;;;;;;;40.77;20.77;;;;;;;;;;5026426;28;20194;-74
2024/02/13 01:56:31;;;;;;;41.80;20.13;;;;;;;;;;5016668;28;20199;-74
2024/02/13 01:58:57;;;;;;;40.60;20.87;;;;;;;;;;5026967;28;20616;-74
2024/02/13 02:01:24;;;;;;;45.17;21.07;;;;;;;;;;5017133;28;20257;-74
2024/02/13 02:03:51;;;;;;;42.37;20.90;;;;;;;;;;5026532;28;20612;-74
2024/02/13 02:06:17;;;;;;;43.50;20.57;;;;;;;;;;5020118;28;20560;-74
2024/02/13 02:08:43;;;;;;;42.50;21.13;;;;;;;;;;5025331;28;20191;-74
2024/02/13 02:11:10;;;;;;;42.77;20.63;;;;;;;;;;5002218;28;20191;-74
2024/02/13 02:13:36;;;;;;;51.13;21.00;;;;;;;;;;5030682;28;20193;-74
2024/02/13 02:16:02;;;;;;;46.63;20.93;;;;;;;;;;5016990;28;20194;-74
2024/02/13 02:18:27;;;;;;;40.27;19.07;;;;;;;;;;5001502;28;20222;-74
2024/02/13 02:20:53;;;;;;;42.73;20.33;;;;;;;;;;5014900;28;20174;-74
2024/02/13 02:23:19;;;;;;;40.17;18.87;;;;;;;;;;5025825;28;20315;-74
2024/02/13 02:25:45;;;;;;;43.73;20.77;;;;;;;;;;5026571;28;20205;-74
2024/02/13 02:28:11;;;;;;;42.10;20.30;;;;;;;;;;5026338;28;20248;-74
2024/02/13 02:30:36;;;;;;;47.63;21.37;;;;;;;;;;5034934;28;20205;-74
2024/02/13 02:33:03;;;;;;;44.03;20.77;;;;;;;;;;5030348;28;20193;-74
2024/02/13 02:35:28;;;;;;;46.83;20.97;;;;;;;;;;5017368;28;20206;-74
2024/02/13 02:37:54;;;;;;;47.03;21.23;;;;;;;;;;5017982;28;20406;-74
2024/02/13 02:40:19;;;;;;;40.87;20.20;;;;;;;;;;5037995;28;20564;-74
2024/02/13 02:42:46;;;;;;;40.40;20.13;;;;;;;;;;5034495;28;20213;-74
2024/02/13 02:45:12;;;;;;;42.13;22.37;;;;;;;;;;5027874;28;20212;-74
2024/02/13 02:47:38;;;;;;;41.53;20.63;;;;;;;;;;5019515;28;20183;-74
2024/02/13 02:50:03;;;;;;;48.80;22.63;;;;;;;;;;5016987;28;20274;-74
2024/02/13 02:52:29;;;;;;;46.13;22.47;;;;;;;;;;5025089;28;20186;-74
2024/02/13 02:54:55;;;;;;;44.63;21.20;;;;;;;;;;5025112;28;20688;-74
2024/02/13 02:57:21;;;;;;;45.87;21.53;;;;;;;;;;5015419;28;20336;-74
2024/02/13 02:59:46;;;;;;;41.63;22.50;;;;;;;;;;5021844;28;20305;-74
2024/02/13 03:02:13;;;;;;;48.50;22.53;;;;;;;;;;5026789;28;20206;-74
2024/02/13 03:04:38;;;;;;;48.53;23.53;;;;;;;;;;5003471;28;20213;-74
2024/02/13 03:07:04;;;;;;;50.30;24.10;;;;;;;;;;5040699;28;20529;-74
2024/02/13 03:09:30;;;;;;;47.07;22.50;;;;;;;;;;5020217;28;20209;-74
2024/02/13 03:11:55;;;;;;;51.67;23.60;;;;;;;;;;5019739;28;20190;-74
2024/02/13 03:14:20;;;;;;;49.53;24.00;;;;;;;;;;5025911;28;20201;-74
2024/02/13 03:16:47;;;;;;;46.83;24.57;;;;;;;;;;5020758;28;20186;-74
2024/02/13 03:19:13;;;;;;;49.70;24.13;;;;;;;;;;5016957;28;20252;-74
2024/02/13 03:21:38;;;;;;;56.07;27.27;;;;;;;;;;5023136;28;20519;-74
2024/02/13 03:24:05;;;;;;;52.53;26.10;;;;;;;;;;5025304;28;20274;-74
2024/02/13 03:26:33;;;;;;;51.57;27.60;;;;;;;;;;5027076;28;20645;-75
2024/02/13 03:28:59;;;;;;;61.43;27.83;;;;;;;;;;5011692;28;20539;-74
2024/02/13 03:31:24;;;;;;;55.50;27.93;;;;;;;;;;5023257;28;20221;-74
2024/02/13 03:33:50;;;;;;;54.80;27.30;;;;;;;;;;5036523;28;20239;-74
2024/02/13 03:36:17;;;;;;;67.63;29.93;;;;;;;;;;5025056;28;20243;-75
2024/02/13 03:38:49;;;;;;;60.80;29.10;;;;;;;;;;5027560;28;20539;-74
2024/02/13 03:41:15;;;;;;;58.43;31.20;;;;;;;;;;5024489;28;20196;-74
2024/02/13 03:43:44;;;;;;;59.37;29.40;;;;;;;;;;5020613;28;20198;-75
2024/02/13 03:46:10;;;;;;;60.50;31.43;;;;;;;;;;5023422;28;20194;-74
2024/02/13 03:48:36;;;;;;;69.37;32.33;;;;;;;;;;5032669;28;20182;-74
2024/02/13 03:51:02;;;;;;;62.53;32.67;;;;;;;;;;5025155;28;20190;-74
2024/02/13 03:53:28;;;;;;;64.77;31.63;;;;;;;;;;5024158;28;20272;-73
2024/02/13 03:55:53;;;;;;;56.93;30.60;;;;;;;;;;5041007;28;20269;-73
2024/02/13 03:58:19;;;;;;;67.03;31.90;;;;;;;;;;5027887;28;20192;-74
2024/02/13 04:00:44;;;;;;;67.77;35.33;;;;;;;;;;5022460;28;20293;-74
2024/02/13 04:03:11;;;;;;;66.23;33.23;;;;;;;;;;5008075;28;20666;-74
2024/02/13 04:05:38;;;;;;;62.73;34.53;;;;;;;;;;5018588;28;20190;-73
2024/02/13 04:08:06;;;;;;;61.27;34.30;;;;;;;;;;5022397;28;20205;-74
2024/02/13 04:10:32;;;;;;;70.77;36.00;;;;;;;;;;5017076;28;20316;-74
2024/02/13 04:12:58;;;;;;;70.83;35.07;;;;;;;;;;5026315;28;20209;-74
2024/02/13 04:15:23;;;;;;;70.87;37.40;;;;;;;;;;5027991;28;20299;-74
2024/02/13 04:17:50;;;;;;;75.17;35.73;;;;;;;;;;5012970;28;20238;-74
2024/02/13 04:20:15;;;;;;;73.43;33.63;;;;;;;;;;5017305;28;20190;-74
2024/02/13 04:22:42;;;;;;;62.60;33.03;;;;;;;;;;5018825;28;20382;-74
2024/02/13 04:25:08;;;;;;;64.07;33.53;;;;;;;;;;5028949;28;20193;-74
2024/02/13 04:27:38;;;;;;;63.83;33.30;;;;;;;;;;5039108;28;20204;-75
2024/02/13 04:30:08;;;;;;;73.10;37.40;;;;;;;;;;5038209;28;20288;-74
2024/02/13 04:32:36;;;;;;;73.63;38.07;;;;;;;;;;5026928;28;20614;-74
2024/02/13 04:35:03;;;;;;;65.33;34.47;;;;;;;;;;5026979;28;20325;-74
2024/02/13 04:37:28;;;;;;;69.30;35.10;;;;;;;;;;5022967;28;20203;-73
2024/02/13 04:39:54;;;;;;;66.60;34.33;;;;;;;;;;5040198;28;20317;-74
2024/02/13 04:42:37;;;;;;;65.53;35.97;;;;;;;;;;5032200;28;20220;-74
2024/02/13 04:45:04;;;;;;;72.80;35.47;;;;;;;;;;5028555;28;20589;-74
2024/02/13 04:47:31;;;;;;;77.37;36.93;;;;;;;;;;5021788;28;20277;-73
2024/02/13 04:50:00;;;;;;;70.67;36.27;;;;;;;;;;5027423;28;20225;-74
2024/02/13 04:52:27;;;;;;;68.10;38.60;;;;;;;;;;5026511;28;20269;-74
2024/02/13 04:54:57;;;;;;;78.60;39.40;;;;;;;;;;5025003;28;20187;-73
2024/02/13 04:57:23;;;;;;;73.47;35.90;;;;;;;;;;5039890;28;20181;-73
2024/02/13 04:59:48;;;;;;;72.97;39.30;;;;;;;;;;5043457;28;20181;-74
2024/02/13 05:02:19;;;;;;;72.30;36.13;;;;;;;;;;5023809;28;20279;-74
2024/02/13 05:07:32;;;;;;;68.60;35.97;;;;;;;;;;5038276;28;20561;-74
2024/02/13 05:10:01;;;;;;;66.50;37.13;;;;;;;;;;5037077;28;20189;-74
2024/02/13 05:12:27;;;;;;;78.80;38.43;;;;;;;;;;5030921;28;20213;-74
2024/02/13 05:14:52;;;;;;;64.27;36.47;;;;;;;;;;5021780;28;20286;-74
2024/02/13 05:17:24;;;;;;;69.07;37.67;;;;;;;;;;5023453;28;20225;-74
2024/02/13 05:19:49;;;;;;;75.00;38.03;;;;;;;;;;5030924;28;20206;-73
2024/02/13 05:22:20;;;;;;;73.70;38.10;;;;;;;;;;5030428;28;20328;-74
2024/02/13 05:24:46;;;;;;;69.27;37.30;;;;;;;;;;5027704;28;20206;-74
2024/02/13 05:27:13;;;;;;;71.87;38.03;;;;;;;;;;5031507;28;20187;-74
2024/02/13 05:29:39;;;;;;;79.53;37.17;;;;;;;;;;5031804;28;20174;-74
2024/02/13 05:32:08;;;;;;;70.73;37.80;;;;;;;;;;5026632;28;20198;-73
2024/02/13 05:34:34;;;;;;;71.07;37.00;;;;;;;;;;5005932;28;20191;-74
2024/02/13 05:37:01;;;;;;;77.00;38.07;;;;;;;;;;5024718;28;20198;-74
2024/02/13 05:39:27;;;;;;;74.67;37.80;;;;;;;;;;5020985;28;20535;-74
2024/02/13 05:41:54;;;;;;;69.07;36.97;;;;;;;;;;5017828;28;20217;-74
2024/02/13 05:44:20;;;;;;;70.93;38.43;;;;;;;;;;5020370;28;20210;-74
2024/02/13 05:46:46;;;;;;;77.20;38.57;;;;;;;;;;5019364;28;20541;-75
2024/02/13 05:49:11;;;;;;;74.30;39.23;;;;;;;;;;5013814;28;20269;-74
2024/02/13 05:51:37;;;;;;;69.53;36.37;;;;;;;;;;5034640;28;20186;-74
2024/02/13 05:54:04;;;;;;;73.30;37.17;;;;;;;;;;5020263;28;20194;-74
2024/02/13 05:56:31;;;;;;;73.77;35.80;;;;;;;;;;5024299;28;20179;-74
2024/02/13 05:58:57;;;;;;;67.83;37.57;;;;;;;;;;5016094;28;20683;-74
2024/02/13 06:01:24;;;;;;;73.13;38.47;;;;;;;;;;5031228;28;20187;-74
2024/02/13 06:03:54;;;;;;;77.70;36.63;;;;;;;;;;5043022;28;20546;-74
2024/02/13 06:06:20;;;;;;;70.07;36.83;;;;;;;;;;5019845;28;20638;-75
2024/02/13 06:08:46;;;;;;;64.23;35.40;;;;;;;;;;5009457;28;20232;-74
2024/02/13 06:11:12;;;;;;;69.57;37.13;;;;;;;;;;5014304;28;20645;-75
2024/02/13 06:13:41;;;;;;;67.73;36.07;;;;;;;;;;5030483;28;20261;-74
2024/02/13 06:16:09;;;;;;;65.57;35.13;;;;;;;;;;5017334;28;20190;-75
2024/02/13 06:18:35;;;;;;;77.20;38.13;;;;;;;;;;5026034;28;20357;-74
2024/02/13 06:21:01;;;;;;;67.13;36.57;;;;;;;;;;5020230;28;20339;-74
2024/02/13 06:23:26;;;;;;;70.07;36.47;;;;;;;;;;5002252;28;20213;-74
2024/02/13 06:25:51;;;;;;;63.93;36.10;;;;;;;;;;5030874;28;20271;-74
2024/02/13 06:28:17;;;;;;;74.60;37.87;;;;;;;;;;5030055;28;20221;-76
2024/02/13 06:30:44;;;;;;;71.83;36.57;;;;;;;;;;5020116;28;20529;-75
2024/02/13 06:33:10;;;;;;;70.50;35.80;;;;;;;;;;5014811;28;20866;-76
2024/02/13 06:35:35;;;;;;;69.23;34.93;;;;;;;;;;5031049;28;20186;-75
2024/02/13 06:38:01;;;;;;;67.83;35.50;;;;;;;;;;5019592;28;20201;-75
2024/02/13 06:40:26;;;;;;;68.50;34.70;;;;;;;;;;5023479;28;20319;-76
2024/02/13 06:42:52;;;;;;;68.73;36.03;;;;;;;;;;5032367;28;20214;-75
2024/02/13 06:45:17;;;;;;;61.50;34.33;;;;;;;;;;5031792;28;20473;-75
2024/02/13 06:47:43;;;;;;;76.77;35.40;;;;;;;;;;5020666;28;20190;-75
2024/02/13 06:50:11;;;;;;;67.80;35.07;;;;;;;;;;5024251;28;20190;-76
2024/02/13 06:52:41;;;;;;;65.23;33.77;;;;;;;;;;5037582;28;20523;-76
2024/02/13 06:55:10;;;;;;;57.43;33.67;;;;;;;;;;5031502;28;20277;-76
2024/02/13 06:57:36;;;;;;;65.17;33.37;;;;;;;;;;5035253;28;20204;-76
2024/02/13 07:00:09;;;;;;;61.23;34.10;;;;;;;;;;5044136;28;20189;-76
2024/02/13 07:02:35;;;;;;;63.03;33.40;;;;;;;;;;5015319;28;20701;-76
2024/02/13 07:05:01;;;;;;;60.07;33.60;;;;;;;;;;5035746;28;20238;-77
2024/02/13 07:07:27;;;;;;;60.10;32.67;;;;;;;;;;5003352;28;20193;-76
2024/02/13 07:09:53;;;;;;;59.63;32.13;;;;;;;;;;5027551;28;20649;-77
2024/02/13 07:12:20;;;;;;;61.83;32.03;;;;;;;;;;5030941;28;20213;-76
2024/02/13 07:14:46;;;;;;;63.67;33.73;;;;;;;;;;5026691;28;20251;-77
2024/02/13 07:17:11;;;;;;;60.03;31.63;;;;;;;;;;5031283;28;20190;-76
2024/02/13 07:19:37;;;;;;;53.40;31.73;;;;;;;;;;5024338;28;20260;-77
2024/02/13 07:22:02;;;;;;;61.53;31.17;;;;;;;;;;5033217;28;20228;-76
2024/02/13 07:24:29;;;;;;;54.67;30.80;;;;;;;;;;5033409;28;20200;-76
2024/02/13 07:26:54;;;;;;;54.73;31.47;;;;;;;;;;5021071;28;20208;-76
2024/02/13 07:29:19;;;;;;;65.20;31.13;;;;;;;;;;5034536;28;20189;-76
2024/02/13 07:31:46;;;;;;;47.90;29.53;;;;;;;;;;5026236;28;20544;-76
2024/02/13 07:34:12;;;;;;;54.50;28.30;;;;;;;;;;5044810;28;20189;-77
2024/02/13 07:36:38;;;;;;;69.00;30.47;;;;;;;;;;5033127;28;20262;-76
2024/02/13 07:39:03;;;;;;;53.77;29.93;;;;;;;;;;5024092;28;20201;-76
2024/02/13 07:41:29;;;;;;;58.77;29.57;;;;;;;;;;5035808;28;20297;-76
2024/02/13 07:43:54;;;;;;;59.53;30.37;;;;;;;;;;5034239;28;20606;-76
2024/02/13 07:46:20;;;;;;;52.63;28.67;;;;;;;;;;5026549;28;20186;-76
2024/02/13 07:48:47;;;;;;;56.73;30.30;;;;;;;;;;5033292;28;20273;-75
2024/02/13 07:51:14;;;;;;;51.87;27.80;;;;;;;;;;5025430;28;20194;-76
2024/02/13 07:53:40;;;;;;;51.40;27.87;;;;;;;;;;5033158;28;20181;-76
2024/02/13 07:56:06;;;;;;;49.23;26.90;;;;;;;;;;5028981;28;20182;-76
2024/02/13 07:58:32;;;;;;;54.87;30.00;;;;;;;;;;5046051;28;20280;-76
2024/02/13 08:00:57;;;;;;;46.67;26.57;;;;;;;;;;5036780;28;20216;-76
2024/02/13 08:03:23;;;;;;;46.33;25.70;;;;;;;;;;5036395;28;20205;-76
2024/02/13 08:05:50;;;;;;;47.87;26.83;;;;;;;;;;5027950;28;20186;-76
2024/02/13 08:08:16;;;;;;;46.20;25.73;;;;;;;;;;5029190;28;20198;-76
2024/02/13 08:10:42;;;;;;;49.17;26.23;;;;;;;;;;5022461;28;20186;-76
2024/02/13 08:13:09;;;;;;;48.80;26.83;;;;;;;;;;5031715;28;20247;-76
2024/02/13 08:15:36;;;;;;;49.17;25.53;;;;;;;;;;5038364;28;20672;-76
2024/02/13 08:18:03;;;;;;;46.17;25.07;;;;;;;;;;5032832;28;20234;-77
2024/02/13 08:20:28;;;;;;;41.93;25.17;;;;;;;;;;5036107;28;20186;-76
2024/02/13 08:22:53;;;;;;;38.47;23.73;;;;;;;;;;5047772;28;20297;-76
2024/02/13 08:25:19;;;;;;;42.83;23.67;;;;;;;;;;5045879;28;20185;-74
2024/02/13 08:27:44;;;;;;;44.13;23.63;;;;;;;;;;5043165;28;20186;-74
2024/02/13 08:30:10;;;;;;;45.37;23.20;;;;;;;;;;5037440;28;20181;-74
2024/02/13 08:32:39;;;;;;;33.47;21.10;;;;;;;;;;5039910;28;20183;-75
2024/02/13 08:35:05;;;;;;;41.50;22.07;;;;;;;;;;5029036;28;20194;-74
2024/02/13 08:37:31;;;;;;;40.13;20.50;;;;;;;;;;5048456;28;20186;-74
2024/02/13 08:39:57;;;;;;;37.60;21.17;;;;;;;;;;5033295;28;20570;-74
2024/02/13 08:42:23;;;;;;;42.97;21.27;;;;;;;;;;5037957;28;20306;-74
2024/02/13 08:44:49;;;;;;;33.00;20.23;;;;;;;;;;5036519;28;20243;-74
2024/02/13 08:47:14;;;;;;;33.57;20.73;;;;;;;;;;5041769;28;20210;-75
2024/02/13 08:49:40;;;;;;;39.17;19.93;;;;;;;;;;5016547;28;20553;-75
2024/02/13 08:52:07;;;;;;;36.40;19.73;;;;;;;;;;5029860;28;20206;-75
2024/02/13 08:54:34;;;;;;;35.13;18.50;;;;;;;;;;5031766;28;20531;-75
2024/02/13 08:56:59;;;;;;;31.30;18.33;;;;;;;;;;5001429;28;20512;-75
2024/02/13 08:59:25;;;;;;;32.33;18.60;;;;;;;;;;5031860;28;20309;-74
2024/02/13 09:01:50;;;;;;;33.33;19.13;;;;;;;;;;5009169;28;20576;-74
2024/02/13 09:04:16;;;;;;;31.57;17.57;;;;;;;;;;5029828;28;20196;-75
2024/02/13 09:06:41;;;;;;;32.93;18.30;;;;;;;;;;5025407;28;20210;-75
2024/02/13 09:09:11;;;;;;;27.47;17.37;;;;;;;;;;5036945;28;20243;-74
2024/02/13 09:11:37;;;;;;;31.03;17.60;;;;;;;;;;5039922;28;20193;-74
2024/02/13 09:14:02;;;;;;;32.23;16.60;;;;;;;;;;5040844;28;20189;-73
2024/02/13 09:16:28;;;;;;;26.80;16.97;;;;;;;;;;5032494;28;20462;-74
2024/02/13 09:18:55;;;;;;;26.23;15.30;;;;;;;;;;5030289;28;20587;-74
2024/02/13 09:21:20;;;;;;;27.83;16.30;;;;;;;;;;5035470;28;20193;-74
2024/02/13 09:23:47;;;;;;;27.57;14.97;;;;;;;;;;5033372;28;20206;-75
2024/02/13 09:26:14;;;;;;;26.07;14.73;;;;;;;;;;5037463;28;20213;-77
2024/02/13 09:28:41;;;;;;;21.13;13.87;;;;;;;;;;5037054;28;20559;-74
2024/02/13 09:31:08;;;;;;;31.87;14.00;;;;;;;;;;5033762;28;20196;-74
2024/02/13 09:33:33;;;;;;;26.30;14.30;;;;;;;;;;5035911;28;20261;-75
2024/02/13 09:35:59;;;;;;;20.10;13.27;;;;;;;;;;5027488;28;20786;-74
2024/02/13 09:38:25;;;;;;;24.27;12.47;;;;;;;;;;5024604;28;20277;-76
2024/02/13 09:40:51;;;;;;;18.33;12.53;;;;;;;;;;5033210;28;20716;-74
2024/02/13 09:43:18;;;;;;;20.60;11.07;;;;;;;;;;5017958;28;20193;-73
2024/02/13 09:45:44;;;;;;;23.98;11.38;;;;;;;;;;5033039;28;20193;-73
2024/02/13 09:48:26;;;;;;;27.47;12.03;;;;;;;;;;5029700;28;20189;-74
2024/02/13 09:50:52;;;;;;;19.60;11.37;;;;;;;;;;5037241;28;20182;-74
2024/02/13 09:53:28;;;;;;;18.77;10.17;;;;;;;;;;5020930;28;20665;-74
2024/02/13 09:55:57;;;;;;;20.98;10.20;;;;;;;;;;5033212;28;20193;-75
2024/02/13 09:58:23;;;;;;;20.73;10.35;;;;;;;;;;5041104;28;20716;-74
2024/02/13 10:00:51;;;;;;;16.67;9.68;;;;;;;;;;5039019;28;20653;-74
2024/02/13 10:03:16;;;;;;;16.70;8.77;;;;;;;;;;5027677;28;20251;-75
2024/02/13 10:05:42;;;;;;;15.45;8.82;;;;;;;;;;5036334;28;20226;-74
2024/02/13 10:08:08;;;;;;;14.75;7.60;;;;;;;;;;5039045;28;20281;-74
2024/02/13 10:10:34;;;;;;;16.83;8.10;;;;;;;;;;5036405;28;20198;-74
2024/02/13 10:13:00;;;;;;;18.17;7.65;;;;;;;;;;5040463;28;20191;-74
2024/02/13 10:15:55;;;;;;;17.15;7.38;;;;;;;;;;5042937;28;20200;-74
2024/02/13 10:18:24;;;;;;;14.15;7.40;;;;;;;;;;5011878;28;20232;-74
2024/02/13 10:20:51;;;;;;;18.35;6.82;;;;;;;;;;5027344;28;20181;-75
2024/02/13 10:23:18;;;;;;;17.52;8.23;;;;;;;;;;5038798;28;20303;-76
2024/02/13 10:25:44;;;;;;;17.13;7.47;;;;;;;;;;5029480;28;20206;-75
2024/02/13 10:28:11;;;;;;;12.43;7.40;;;;;;;;;;5021007;28;20213;-76
2024/02/13 10:30:38;;;;;;;14.02;7.07;;;;;;;;;;5026324;28;21459;-75
2024/02/13 10:33:09;;;;;;;17.50;7.20;;;;;;;;;;5036014;28;20298;-75
2024/02/13 10:35:35;;;;;;;15.82;6.63;;;;;;;;;;5041415;28;20189;-75
2024/02/13 10:38:04;;;;;;;13.82;6.68;;;;;;;;;;5043243;28;20217;-75
2024/02/13 10:40:30;;;;;;;11.65;6.25;;;;;;;;;;5035355;28;20225;-74
2024/02/13 10:42:57;;;;;;;18.73;6.55;;;;;;;;;;5040375;28;20244;-75
2024/02/13 10:45:33;;;;;;;18.05;6.43;;;;;;;;;;5030984;28;20201;-75
2024/02/13 10:48:26;;;;;;;18.50;7.00;;;;;;;;;;5030052;28;20224;-75
2024/02/13 10:50:53;;;;;;;12.55;5.28;;;;;;;;;;5031977;28;20205;-76
2024/02/13 10:53:21;;;;;;;17.00;5.72;;;;;;;;;;5035519;28;20181;-76
2024/02/13 10:55:52;;;;;;;13.30;5.32;;;;;;;;;;5036194;28;20201;-74
2024/02/13 10:58:21;;;;;;;10.40;5.18;;;;;;;;;;5031953;28;20192;-75
2024/02/13 11:00:49;;;;;;;14.43;5.55;;;;;;;;;;5040611;28;20578;-74
2024/02/13 11:03:15;;;;;;;17.13;4.68;;;;;;;;;;5030370;28;20505;-74
2024/02/13 11:05:41;;;;;;;10.40;4.43;;;;;;;;;;5038328;28;20185;-74
2024/02/13 11:08:07;;;;;;;14.25;4.78;;;;;;;;;;5039366;28;20186;-74
2024/02/13 11:10:36;;;;;;;14.70;5.32;;;;;;;;;;5021958;28;20186;-74
2024/02/13 11:13:04;;;;;;;9.77;4.50;;;;;;;;;;5035354;28;20214;-74
2024/02/13 11:15:32;;;;;;;13.73;4.47;;;;;;;;;;5028817;28;20182;-75
2024/02/13 11:18:04;;;;;;;11.80;5.03;;;;;;;;;;5036622;28;20226;-74
2024/02/13 11:20:30;;;;;;;11.77;4.22;;;;;;;;;;5030962;28;20190;-74
2024/02/13 11:22:59;;;;;;;15.65;4.57;;;;;;;;;;5028333;28;20557;-75
2024/02/13 11:25:28;;;;;;;14.40;4.80;;;;;;;;;;5043718;28;20710;-74
2024/02/13 11:27:58;;;;;;;11.60;4.75;;;;;;;;;;5038950;28;20609;-74
2024/02/13 11:30:23;;;;;;;13.35;4.40;;;;;;;;;;5028752;28;20196;-73
2024/02/13 11:32:55;;;;;;;11.15;4.70;;;;;;;;;;5042041;28;20177;-75
2024/02/13 11:35:23;;;;;;;14.20;4.53;;;;;;;;;;5037579;28;20196;-74
2024/02/13 11:37:49;;;;;;;11.20;4.57;;;;;;;;;;5037930;28;20178;-73
2024/02/13 11:40:19;;;;;;;10.90;4.47;;;;;;;;;;5034288;28;20201;-74
2024/02/13 11:42:44;;;;;;;15.80;4.60;;;;;;;;;;5023189;28;20209;-73
2024/02/13 11:45:24;;;;;;;10.05;4.40;;;;;;;;;;5029476;28;20256;-74
2024/02/13 11:47:50;;;;;;;9.57;4.35;;;;;;;;;;5027302;28;20186;-73
2024/02/13 11:50:17;;;;;;;13.82;4.15;;;;;;;;;;5036467;28;20666;-74
2024/02/13 11:52:43;;;;;;;12.38;4.20;;;;;;;;;;5033520;28;20193;-73
2024/02/13 11:55:09;;;;;;;12.18;3.85;;;;;;;;;;5025951;28;20189;-73
2024/02/13 11:57:34;;;;;;;11.73;4.40;;;;;;;;;;5018654;28;20185;-73
2024/02/13 12:00:01;;;;;;;13.35;4.32;;;;;;;;;;5029245;28;20221;-74
2024/02/13 12:02:28;;;;;;;17.10;4.57;;;;;;;;;;5028183;28;20225;-74
2024/02/13 12:04:55;;;;;;;13.73;4.00;;;;;;;;;;5014489;28;20182;-73
2024/02/13 12:07:21;;;;;;;14.55;4.05;;;;;;;;;;5020765;28;20195;-73
2024/02/13 12:09:52;;;;;;;11.05;3.58;;;;;;;;;;5030940;28;20592;-74
2024/02/13 12:12:18;;;;;;;12.00;4.53;;;;;;;;;;5027411;28;20205;-74
2024/02/13 12:14:43;;;;;;;14.88;4.63;;;;;;;;;;5029549;28;20197;-74
2024/02/13 12:17:10;;;;;;;13.07;4.00;;;;;;;;;;5012563;28;20177;-73
2024/02/13 12:19:37;;;;;;;9.52;4.05;;;;;;;;;;5022308;28;20602;-74
2024/02/13 12:22:10;;;;;;;10.75;4.43;;;;;;;;;;5026829;28;20580;-74
2024/02/13 12:24:39;;;;;;;10.85;3.88;;;;;;;;;;5028510;28;20190;-74
2024/02/13 12:27:06;;;;;;;10.73;4.03;;;;;;;;;;5024220;28;20194;-74
2024/02/13 12:29:38;;;;;;;14.00;4.10;;;;;;;;;;5026984;28;20186;-74
2024/02/13 12:32:06;;;;;;;12.25;4.07;;;;;;;;;;5026489;28;20174;-73
2024/02/13 12:34:33;;;;;;;10.07;3.58;;;;;;;;;;5027673;28;20645;-73
2024/02/13 12:37:00;;;;;;;9.00;3.55;;;;;;;;;;5027839;28;20280;-74
2024/02/13 12:39:26;;;;;;;14.63;3.97;;;;;;;;;;5030176;28;20193;-74
2024/02/13 12:41:52;;;;;;;10.77;3.90;;;;;;;;;;5026028;28;20260;-73
2024/02/13 12:44:21;;;;;;;12.00;3.55;;;;;;;;;;5032511;28;20721;-74
2024/02/13 12:46:48;;;;;;;16.10;3.63;;;;;;;;;;5027649;28;20851;-74
2024/02/13 12:49:16;;;;;;;9.60;3.90;;;;;;;;;;5026180;28;20174;-74
2024/02/13 12:51:44;;;;;;;9.98;3.63;;;;;;;;;;5029905;28;20222;-73
2024/02/13 12:54:10;;;;;;;12.57;3.90;;;;;;;;;;5024477;28;21115;-73
2024/02/13 12:56:41;;;;;;;8.40;3.95;;;;;;;;;;5039678;28;20272;-74
2024/02/13 12:59:12;;;;;;;9.35;3.28;;;;;;;;;;5038848;28;20194;-74
2024/02/13 13:01:45;;;;;;;12.35;3.38;;;;;;;;;;5041445;28;20256;-74
2024/02/13 13:04:12;;;;;;;8.32;3.40;;;;;;;;;;5022143;28;20186;-73
2024/02/13 13:06:39;;;;;;;10.35;3.97;;;;;;;;;;5031201;28;20252;-74
2024/02/13 13:09:08;;;;;;;8.93;3.47;;;;;;;;;;5033525;28;20186;-73
2024/02/13 13:11:35;;;;;;;10.75;3.38;;;;;;;;;;5034057;28;20577;-74
2024/02/13 13:14:00;;;;;;;11.00;3.55;;;;;;;;;;5023394;28;20232;-73
2024/02/13 13:16:28;;;;;;;14.02;3.50;;;;;;;;;;5015330;28;20186;-73
2024/02/13 13:18:57;;;;;;;10.75;2.95;;;;;;;;;;5017169;28;20253;-74
2024/02/13 13:21:25;;;;;;;8.23;3.03;;;;;;;;;;5046496;28;20647;-73
2024/02/13 13:23:53;;;;;;;7.68;3.08;;;;;;;;;;5031162;28;20202;-73
2024/02/13 13:26:23;;;;;;;12.45;3.58;;;;;;;;;;5031015;28;20186;-73
2024/02/13 13:28:52;;;;;;;9.40;2.90;;;;;;;;;;5035681;28;20239;-72
2024/02/13 13:31:19;;;;;;;14.27;3.63;;;;;;;;;;5034784;28;20240;-73
2024/02/13 13:33:47;;;;;;;8.35;2.53;;;;;;;;;;5030459;28;20190;-73
2024/02/13 13:36:15;;;;;;;10.63;3.40;;;;;;;;;;5037426;28;20180;-73
2024/02/13 13:38:42;;;;;;;7.85;2.63;;;;;;;;;;5034814;28;20585;-72
2024/02/13 13:41:08;;;;;;;8.68;3.00;;;;;;;;;;5029354;28;20202;-73
2024/02/13 13:43:34;;;;;;;11.52;2.90;;;;;;;;;;5032064;28;20262;-73
2024/02/13 13:45:59;;;;;;;4.93;2.42;;;;;;;;;;5030524;28;20284;-73
2024/02/13 13:48:28;;;;;;;7.85;3.33;;;;;;;;;;5031187;28;20268;-72
2024/02/13 13:50:54;;;;;;;9.15;2.55;;;;;;;;;;5029076;28;20565;-74
2024/02/13 13:53:21;;;;;;;7.95;2.83;;;;;;;;;;5028038;28;20166;-73
2024/02/13 13:55:46;;;;;;;11.45;2.72;;;;;;;;;;5036352;28;20230;-73
2024/02/13 13:58:12;;;;;;;8.25;2.63;;;;;;;;;;5018892;28;20218;-73
2024/02/13 14:00:38;;;;;;;5.03;2.40;;;;;;;;;;5031338;28;20190;-73
2024/02/13 14:03:07;;;;;;;5.45;2.70;;;;;;;;;;5029926;28;20234;-74
2024/02/13 14:05:37;;;;;;;6.57;2.47;;;;;;;;;;5032102;28;20243;-73
2024/02/13 14:08:07;;;;;;;9.18;2.33;;;;;;;;;;5033419;28;20599;-73
2024/02/13 14:10:33;;;;;;;6.90;2.35;;;;;;;;;;5027773;28;20194;-73
2024/02/13 14:13:00;;;;;;;8.73;2.33;;;;;;;;;;5028388;28;20288;-73
2024/02/13 14:15:29;;;;;;;7.32;1.92;;;;;;;;;;5028146;28;20654;-74
2024/02/13 14:17:58;;;;;;;7.32;2.33;;;;;;;;;;5031429;28;20570;-73
2024/02/13 14:20:24;;;;;;;6.95;1.88;;;;;;;;;;5038924;28;20197;-73
2024/02/13 14:22:50;;;;;;;5.78;1.88;;;;;;;;;;5028930;28;20649;-73